sensor_id;sensor_type;location;lat;lon;timestamp;P1;durP1;ratioP1;P2;durP2;ratioP2
11346;SDS011;5728;42.722;23.258;2024-02-26T00:00:18;28.33;;;13.17;;
11346;SDS011;5728;42.722;23.258;2024-02-26T00:02:47;19.17;;;12.53;;
11346;SDS011;5728;42.722;23.258;2024-02-26T00:05:14;20.63;;;11.80;;
11346;SDS011;5728;42.722;23.258;2024-02-26T00:07:41;26.67;;;12.70;;
11346;SDS011;5728;42.722;23.258;2024-02-26T00:10:08;21.30;;;13.03;;
11346;SDS011;5728;42.722;23.258;2024-02-26T00:12:35;23.90;;;14.23;;
11346;SDS011;5728;42.722;23.258;2024-02-26T00:15:04;17.00;;;13.23;;
11346;SDS011;5728;42.722;23.258;2024-02-26T00:17:32;20.87;;;12.73;;
11346;SDS011;5728;42.722;23.258;2024-02-26T00:20:00;19.43;;;12.47;;
11346;SDS011;5728;42.722;23.258;2024-02-26T00:22:29;20.50;;;11.63;;
11346;SDS011;5728;42.722;23.258;2024-02-26T00:24:57;20.97;;;12.70;;
11346;SDS011;5728;42.722;23.258;2024-02-26T00:27:24;18.87;;;11.43;;
11346;SDS011;5728;42.722;23.258;2024-02-26T00:29:51;22.57;;;13.03;;
11346;SDS011;5728;42.722;23.258;2024-02-26T00:32:18;18.30;;;12.60;;
11346;SDS011;5728;42.722;23.258;2024-02-26T00:34:45;19.83;;;13.63;;
11346;SDS011;5728;42.722;23.258;2024-02-26T00:37:13;19.83;;;12.20;;
11346;SDS011;5728;42.722;23.258;2024-02-26T00:39:40;22.57;;;13.73;;
11346;SDS011;5728;42.722;23.258;2024-02-26T00:42:07;22.60;;;14.00;;
11346;SDS011;5728;42.722;23.258;2024-02-26T00:44:34;18.63;;;13.93;;
11346;SDS011;5728;42.722;23.258;2024-02-26T00:47:01;19.67;;;13.37;;
11346;SDS011;5728;42.722;23.258;2024-02-26T00:49:28;35.60;;;14.00;;
11346;SDS011;5728;42.722;23.258;2024-02-26T00:51:55;25.23;;;16.03;;
11346;SDS011;5728;42.722;23.258;2024-02-26T00:54:24;23.93;;;15.87;;
11346;SDS011;5728;42.722;23.258;2024-02-26T00:56:51;23.70;;;14.53;;
11346;SDS011;5728;42.722;23.258;2024-02-26T00:59:17;21.40;;;14.23;;
11346;SDS011;5728;42.722;23.258;2024-02-26T01:01:44;17.77;;;12.20;;
11346;SDS011;5728;42.722;23.258;2024-02-26T01:04:11;22.10;;;13.67;;
11346;SDS011;5728;42.722;23.258;2024-02-26T01:06:39;22.93;;;13.37;;
11346;SDS011;5728;42.722;23.258;2024-02-26T01:09:06;21.23;;;13.57;;
11346;SDS011;5728;42.722;23.258;2024-02-26T01:11:35;20.57;;;13.37;;
11346;SDS011;5728;42.722;23.258;2024-02-26T01:14:02;25.37;;;14.90;;
11346;SDS011;5728;42.722;23.258;2024-02-26T01:16:29;24.57;;;14.40;;
11346;SDS011;5728;42.722;23.258;2024-02-26T01:18:57;21.93;;;14.07;;
11346;SDS011;5728;42.722;23.258;2024-02-26T01:21:24;25.00;;;13.87;;
11346;SDS011;5728;42.722;23.258;2024-02-26T01:23:52;22.93;;;15.30;;
11346;SDS011;5728;42.722;23.258;2024-02-26T01:26:19;20.60;;;14.57;;
11346;SDS011;5728;42.722;23.258;2024-02-26T01:28:48;19.50;;;13.53;;
11346;SDS011;5728;42.722;23.258;2024-02-26T01:31:15;19.67;;;13.60;;
11346;SDS011;5728;42.722;23.258;2024-02-26T01:33:42;22.20;;;14.27;;
11346;SDS011;5728;42.722;23.258;2024-02-26T01:36:09;21.80;;;13.97;;
11346;SDS011;5728;42.722;23.258;2024-02-26T01:38:36;21.37;;;13.87;;
11346;SDS011;5728;42.722;23.258;2024-02-26T01:41:03;26.03;;;14.00;;
11346;SDS011;5728;42.722;23.258;2024-02-26T01:43:30;21.33;;;14.10;;
11346;SDS011;5728;42.722;23.258;2024-02-26T01:45:58;19.60;;;13.33;;
11346;SDS011;5728;42.722;23.258;2024-02-26T01:48:25;21.50;;;13.67;;
11346;SDS011;5728;42.722;23.258;2024-02-26T01:50:52;20.80;;;13.63;;
11346;SDS011;5728;42.722;23.258;2024-02-26T01:53:19;20.57;;;13.80;;
11346;SDS011;5728;42.722;23.258;2024-02-26T01:55:47;22.60;;;13.90;;
11346;SDS011;5728;42.722;23.258;2024-02-26T01:58:14;25.23;;;14.27;;
11346;SDS011;5728;42.722;23.258;2024-02-26T02:00:41;27.57;;;14.53;;
11346;SDS011;5728;42.722;23.258;2024-02-26T02:03:10;26.17;;;15.90;;
11346;SDS011;5728;42.722;23.258;2024-02-26T02:05:37;24.00;;;16.33;;
11346;SDS011;5728;42.722;23.258;2024-02-26T02:08:07;24.20;;;14.70;;
11346;SDS011;5728;42.722;23.258;2024-02-26T02:10:34;23.00;;;15.50;;
11346;SDS011;5728;42.722;23.258;2024-02-26T02:13:01;21.00;;;14.50;;
11346;SDS011;5728;42.722;23.258;2024-02-26T02:15:28;20.80;;;15.07;;
11346;SDS011;5728;42.722;23.258;2024-02-26T02:17:55;26.13;;;15.40;;
11346;SDS011;5728;42.722;23.258;2024-02-26T02:20:26;23.90;;;15.10;;
11346;SDS011;5728;42.722;23.258;2024-02-26T02:22:58;21.13;;;13.83;;
11346;SDS011;5728;42.722;23.258;2024-02-26T02:25:25;24.50;;;14.70;;
11346;SDS011;5728;42.722;23.258;2024-02-26T02:27:52;24.50;;;15.13;;
11346;SDS011;5728;42.722;23.258;2024-02-26T02:30:20;22.43;;;15.10;;
11346;SDS011;5728;42.722;23.258;2024-02-26T02:32:50;21.07;;;13.60;;
11346;SDS011;5728;42.722;23.258;2024-02-26T02:35:18;20.07;;;14.90;;
11346;SDS011;5728;42.722;23.258;2024-02-26T02:37:46;22.43;;;15.37;;
11346;SDS011;5728;42.722;23.258;2024-02-26T02:40:13;20.50;;;14.93;;
11346;SDS011;5728;42.722;23.258;2024-02-26T02:42:40;22.37;;;15.30;;
11346;SDS011;5728;42.722;23.258;2024-02-26T02:45:07;19.90;;;14.27;;
11346;SDS011;5728;42.722;23.258;2024-02-26T02:47:35;19.13;;;14.20;;
11346;SDS011;5728;42.722;23.258;2024-02-26T02:50:03;26.03;;;16.17;;
11346;SDS011;5728;42.722;23.258;2024-02-26T02:52:30;22.73;;;16.00;;
11346;SDS011;5728;42.722;23.258;2024-02-26T02:54:59;26.87;;;15.03;;
11346;SDS011;5728;42.722;23.258;2024-02-26T02:57:25;22.30;;;15.60;;
11346;SDS011;5728;42.722;23.258;2024-02-26T02:59:52;22.63;;;15.00;;
11346;SDS011;5728;42.722;23.258;2024-02-26T03:02:19;25.63;;;15.73;;
11346;SDS011;5728;42.722;23.258;2024-02-26T03:04:46;27.90;;;16.40;;
11346;SDS011;5728;42.722;23.258;2024-02-26T03:07:13;22.27;;;15.53;;
11346;SDS011;5728;42.722;23.258;2024-02-26T03:09:39;24.90;;;17.47;;
11346;SDS011;5728;42.722;23.258;2024-02-26T03:12:08;24.03;;;15.97;;
11346;SDS011;5728;42.722;23.258;2024-02-26T03:14:35;24.77;;;14.83;;
11346;SDS011;5728;42.722;23.258;2024-02-26T03:17:02;22.10;;;16.23;;
11346;SDS011;5728;42.722;23.258;2024-02-26T03:19:29;24.57;;;15.07;;
11346;SDS011;5728;42.722;23.258;2024-02-26T03:21:56;21.23;;;14.57;;
11346;SDS011;5728;42.722;23.258;2024-02-26T03:24:23;25.07;;;15.40;;
11346;SDS011;5728;42.722;23.258;2024-02-26T03:26:50;23.90;;;15.17;;
11346;SDS011;5728;42.722;23.258;2024-02-26T03:29:18;19.20;;;14.57;;
11346;SDS011;5728;42.722;23.258;2024-02-26T03:31:45;22.67;;;13.70;;
11346;SDS011;5728;42.722;23.258;2024-02-26T03:34:12;27.70;;;14.73;;
11346;SDS011;5728;42.722;23.258;2024-02-26T03:36:39;26.03;;;15.07;;
11346;SDS011;5728;42.722;23.258;2024-02-26T03:39:07;24.57;;;15.90;;
11346;SDS011;5728;42.722;23.258;2024-02-26T03:41:34;21.97;;;15.37;;
11346;SDS011;5728;42.722;23.258;2024-02-26T03:44:01;20.23;;;14.60;;
11346;SDS011;5728;42.722;23.258;2024-02-26T03:46:29;22.67;;;15.17;;
11346;SDS011;5728;42.722;23.258;2024-02-26T03:48:56;24.90;;;15.33;;
11346;SDS011;5728;42.722;23.258;2024-02-26T03:51:23;27.77;;;14.37;;
11346;SDS011;5728;42.722;23.258;2024-02-26T03:53:50;22.20;;;15.67;;
11346;SDS011;5728;42.722;23.258;2024-02-26T03:56:17;21.30;;;15.03;;
11346;SDS011;5728;42.722;23.258;2024-02-26T03:58:44;22.40;;;14.30;;
11346;SDS011;5728;42.722;23.258;2024-02-26T04:01:11;23.43;;;15.57;;
11346;SDS011;5728;42.722;23.258;2024-02-26T04:03:39;22.47;;;15.40;;
11346;SDS011;5728;42.722;23.258;2024-02-26T04:06:08;21.20;;;14.17;;
11346;SDS011;5728;42.722;23.258;2024-02-26T04:08:35;25.60;;;16.07;;
11346;SDS011;5728;42.722;23.258;2024-02-26T04:11:03;29.17;;;16.80;;
11346;SDS011;5728;42.722;23.258;2024-02-26T04:13:32;24.33;;;16.90;;
11346;SDS011;5728;42.722;23.258;2024-02-26T04:15:59;26.70;;;17.37;;
11346;SDS011;5728;42.722;23.258;2024-02-26T04:18:28;31.23;;;16.97;;
11346;SDS011;5728;42.722;23.258;2024-02-26T04:20:56;26.07;;;15.90;;
11346;SDS011;5728;42.722;23.258;2024-02-26T04:23:23;26.67;;;17.60;;
11346;SDS011;5728;42.722;23.258;2024-02-26T04:25:50;28.70;;;18.97;;
11346;SDS011;5728;42.722;23.258;2024-02-26T04:28:19;29.03;;;17.90;;
11346;SDS011;5728;42.722;23.258;2024-02-26T04:30:46;31.73;;;17.53;;
11346;SDS011;5728;42.722;23.258;2024-02-26T04:33:14;31.70;;;16.70;;
11346;SDS011;5728;42.722;23.258;2024-02-26T04:35:42;28.53;;;17.57;;
11346;SDS011;5728;42.722;23.258;2024-02-26T04:38:10;24.83;;;16.97;;
11346;SDS011;5728;42.722;23.258;2024-02-26T04:40:37;27.57;;;17.93;;
11346;SDS011;5728;42.722;23.258;2024-02-26T04:43:04;27.33;;;18.63;;
11346;SDS011;5728;42.722;23.258;2024-02-26T04:45:31;29.73;;;18.27;;
11346;SDS011;5728;42.722;23.258;2024-02-26T04:47:59;30.23;;;19.13;;
11346;SDS011;5728;42.722;23.258;2024-02-26T04:50:26;29.57;;;17.33;;
11346;SDS011;5728;42.722;23.258;2024-02-26T04:52:53;26.50;;;17.73;;
11346;SDS011;5728;42.722;23.258;2024-02-26T04:55:21;28.90;;;17.97;;
11346;SDS011;5728;42.722;23.258;2024-02-26T04:57:48;31.37;;;19.13;;
11346;SDS011;5728;42.722;23.258;2024-02-26T05:00:15;35.20;;;18.73;;
11346;SDS011;5728;42.722;23.258;2024-02-26T05:02:43;30.70;;;18.83;;
11346;SDS011;5728;42.722;23.258;2024-02-26T05:05:10;24.57;;;15.80;;
11346;SDS011;5728;42.722;23.258;2024-02-26T05:07:41;24.37;;;14.67;;
11346;SDS011;5728;42.722;23.258;2024-02-26T05:10:09;22.77;;;16.23;;
11346;SDS011;5728;42.722;23.258;2024-02-26T05:12:37;24.77;;;16.23;;
11346;SDS011;5728;42.722;23.258;2024-02-26T05:15:06;22.73;;;14.60;;
11346;SDS011;5728;42.722;23.258;2024-02-26T05:17:33;24.20;;;14.87;;
11346;SDS011;5728;42.722;23.258;2024-02-26T05:20:00;22.90;;;13.87;;
11346;SDS011;5728;42.722;23.258;2024-02-26T05:22:27;18.10;;;13.17;;
11346;SDS011;5728;42.722;23.258;2024-02-26T05:24:54;18.00;;;13.60;;
11346;SDS011;5728;42.722;23.258;2024-02-26T05:27:21;21.00;;;14.07;;
11346;SDS011;5728;42.722;23.258;2024-02-26T05:29:50;26.57;;;14.03;;
11346;SDS011;5728;42.722;23.258;2024-02-26T05:32:19;20.70;;;13.40;;
11346;SDS011;5728;42.722;23.258;2024-02-26T05:34:46;24.90;;;13.50;;
11346;SDS011;5728;42.722;23.258;2024-02-26T05:37:13;29.93;;;13.90;;
11346;SDS011;5728;42.722;23.258;2024-02-26T05:39:40;23.53;;;13.20;;
11346;SDS011;5728;42.722;23.258;2024-02-26T05:42:07;19.70;;;13.23;;
11346;SDS011;5728;42.722;23.258;2024-02-26T05:44:34;17.87;;;13.33;;
11346;SDS011;5728;42.722;23.258;2024-02-26T05:47:04;28.47;;;15.90;;
11346;SDS011;5728;42.722;23.258;2024-02-26T05:49:30;28.90;;;17.57;;
11346;SDS011;5728;42.722;23.258;2024-02-26T05:51:58;30.47;;;17.90;;
11346;SDS011;5728;42.722;23.258;2024-02-26T05:54:25;30.70;;;18.33;;
11346;SDS011;5728;42.722;23.258;2024-02-26T05:56:52;31.53;;;19.13;;
11346;SDS011;5728;42.722;23.258;2024-02-26T05:59:19;29.93;;;18.63;;
11346;SDS011;5728;42.722;23.258;2024-02-26T06:01:46;27.63;;;17.80;;
11346;SDS011;5728;42.722;23.258;2024-02-26T06:04:14;35.20;;;20.13;;
11346;SDS011;5728;42.722;23.258;2024-02-26T06:06:42;26.87;;;17.90;;
11346;SDS011;5728;42.722;23.258;2024-02-26T06:09:10;33.13;;;21.73;;
11346;SDS011;5728;42.722;23.258;2024-02-26T06:11:37;31.87;;;19.13;;
11346;SDS011;5728;42.722;23.258;2024-02-26T06:14:04;35.87;;;20.83;;
11346;SDS011;5728;42.722;23.258;2024-02-26T06:16:31;30.97;;;19.40;;
11346;SDS011;5728;42.722;23.258;2024-02-26T06:18:59;32.10;;;19.83;;
11346;SDS011;5728;42.722;23.258;2024-02-26T06:21:29;32.13;;;19.33;;
11346;SDS011;5728;42.722;23.258;2024-02-26T06:23:56;27.60;;;18.03;;
11346;SDS011;5728;42.722;23.258;2024-02-26T06:26:23;26.30;;;17.50;;
11346;SDS011;5728;42.722;23.258;2024-02-26T06:28:53;31.87;;;18.83;;
11346;SDS011;5728;42.722;23.258;2024-02-26T06:31:21;26.87;;;16.63;;
11346;SDS011;5728;42.722;23.258;2024-02-26T06:33:48;30.40;;;18.43;;
11346;SDS011;5728;42.722;23.258;2024-02-26T06:36:15;34.47;;;21.23;;
11346;SDS011;5728;42.722;23.258;2024-02-26T06:38:44;35.13;;;22.87;;
11346;SDS011;5728;42.722;23.258;2024-02-26T06:41:11;41.57;;;25.40;;
11346;SDS011;5728;42.722;23.258;2024-02-26T06:43:38;35.93;;;25.67;;
11346;SDS011;5728;42.722;23.258;2024-02-26T06:46:05;48.33;;;23.63;;
11346;SDS011;5728;42.722;23.258;2024-02-26T06:48:32;42.50;;;25.73;;
11346;SDS011;5728;42.722;23.258;2024-02-26T06:50:59;47.80;;;24.50;;
11346;SDS011;5728;42.722;23.258;2024-02-26T06:53:26;51.50;;;29.83;;
11346;SDS011;5728;42.722;23.258;2024-02-26T06:55:54;68.27;;;36.27;;
11346;SDS011;5728;42.722;23.258;2024-02-26T06:58:21;56.57;;;36.50;;
11346;SDS011;5728;42.722;23.258;2024-02-26T07:00:48;59.03;;;39.97;;
11346;SDS011;5728;42.722;23.258;2024-02-26T07:03:15;59.80;;;31.97;;
11346;SDS011;5728;42.722;23.258;2024-02-26T07:05:42;52.13;;;27.87;;
11346;SDS011;5728;42.722;23.258;2024-02-26T07:08:11;35.27;;;20.90;;
11346;SDS011;5728;42.722;23.258;2024-02-26T07:10:38;35.80;;;21.03;;
11346;SDS011;5728;42.722;23.258;2024-02-26T07:13:06;31.07;;;20.87;;
11346;SDS011;5728;42.722;23.258;2024-02-26T07:15:33;28.33;;;18.17;;
11346;SDS011;5728;42.722;23.258;2024-02-26T07:18:00;38.13;;;20.00;;
11346;SDS011;5728;42.722;23.258;2024-02-26T07:22:55;37.63;;;20.47;;
11346;SDS011;5728;42.722;23.258;2024-02-26T07:25:23;31.47;;;19.53;;
11346;SDS011;5728;42.722;23.258;2024-02-26T07:27:50;29.67;;;18.27;;
11346;SDS011;5728;42.722;23.258;2024-02-26T07:30:18;28.20;;;17.80;;
11346;SDS011;5728;42.722;23.258;2024-02-26T07:32:45;30.73;;;17.90;;
11346;SDS011;5728;42.722;23.258;2024-02-26T07:35:12;34.40;;;18.00;;
11346;SDS011;5728;42.722;23.258;2024-02-26T07:37:40;28.80;;;16.80;;
11346;SDS011;5728;42.722;23.258;2024-02-26T07:40:07;27.93;;;17.17;;
11346;SDS011;5728;42.722;23.258;2024-02-26T07:42:35;38.70;;;16.97;;
11346;SDS011;5728;42.722;23.258;2024-02-26T07:45:02;27.80;;;17.30;;
11346;SDS011;5728;42.722;23.258;2024-02-26T07:47:31;29.33;;;15.80;;
11346;SDS011;5728;42.722;23.258;2024-02-26T07:49:59;28.73;;;15.57;;
11346;SDS011;5728;42.722;23.258;2024-02-26T07:52:26;25.43;;;15.23;;
11346;SDS011;5728;42.722;23.258;2024-02-26T07:54:53;23.73;;;16.03;;
11346;SDS011;5728;42.722;23.258;2024-02-26T07:57:20;25.20;;;15.40;;
11346;SDS011;5728;42.722;23.258;2024-02-26T07:59:47;27.27;;;15.27;;
11346;SDS011;5728;42.722;23.258;2024-02-26T08:02:14;25.43;;;15.63;;
11346;SDS011;5728;42.722;23.258;2024-02-26T08:04:43;27.20;;;15.63;;
11346;SDS011;5728;42.722;23.258;2024-02-26T08:07:10;26.50;;;15.93;;
11346;SDS011;5728;42.722;23.258;2024-02-26T08:09:37;25.47;;;17.50;;
11346;SDS011;5728;42.722;23.258;2024-02-26T08:12:04;31.77;;;18.60;;
11346;SDS011;5728;42.722;23.258;2024-02-26T08:14:32;30.47;;;18.67;;
11346;SDS011;5728;42.722;23.258;2024-02-26T08:16:59;36.37;;;18.63;;
11346;SDS011;5728;42.722;23.258;2024-02-26T08:19:26;26.57;;;17.67;;
11346;SDS011;5728;42.722;23.258;2024-02-26T08:21:54;31.10;;;17.93;;
11346;SDS011;5728;42.722;23.258;2024-02-26T08:24:22;28.63;;;17.03;;
11346;SDS011;5728;42.722;23.258;2024-02-26T08:26:50;30.47;;;16.87;;
11346;SDS011;5728;42.722;23.258;2024-02-26T08:29:17;24.47;;;17.40;;
11346;SDS011;5728;42.722;23.258;2024-02-26T08:31:44;26.90;;;18.37;;
11346;SDS011;5728;42.722;23.258;2024-02-26T08:34:11;32.60;;;17.33;;
11346;SDS011;5728;42.722;23.258;2024-02-26T08:36:38;31.50;;;17.47;;
11346;SDS011;5728;42.722;23.258;2024-02-26T08:39:06;25.80;;;17.43;;
11346;SDS011;5728;42.722;23.258;2024-02-26T08:41:34;24.40;;;17.63;;
11346;SDS011;5728;42.722;23.258;2024-02-26T08:44:01;38.73;;;17.30;;
11346;SDS011;5728;42.722;23.258;2024-02-26T08:46:28;23.43;;;16.67;;
11346;SDS011;5728;42.722;23.258;2024-02-26T08:48:55;25.80;;;17.20;;
11346;SDS011;5728;42.722;23.258;2024-02-26T08:51:22;31.53;;;18.00;;
11346;SDS011;5728;42.722;23.258;2024-02-26T08:53:49;35.07;;;17.90;;
11346;SDS011;5728;42.722;23.258;2024-02-26T08:56:17;27.47;;;17.63;;
11346;SDS011;5728;42.722;23.258;2024-02-26T08:58:46;33.13;;;18.90;;
11346;SDS011;5728;42.722;23.258;2024-02-26T09:01:14;27.03;;;18.03;;
11346;SDS011;5728;42.722;23.258;2024-02-26T09:03:41;31.90;;;17.07;;
11346;SDS011;5728;42.722;23.258;2024-02-26T09:06:08;28.27;;;18.70;;
11346;SDS011;5728;42.722;23.258;2024-02-26T09:08:37;30.30;;;16.97;;
11346;SDS011;5728;42.722;23.258;2024-02-26T09:11:04;27.00;;;17.27;;
11346;SDS011;5728;42.722;23.258;2024-02-26T09:13:32;25.80;;;17.13;;
11346;SDS011;5728;42.722;23.258;2024-02-26T09:15:59;25.73;;;16.53;;
11346;SDS011;5728;42.722;23.258;2024-02-26T09:18:26;32.50;;;18.07;;
11346;SDS011;5728;42.722;23.258;2024-02-26T09:20:54;29.37;;;18.10;;
11346;SDS011;5728;42.722;23.258;2024-02-26T09:23:21;36.67;;;19.13;;
11346;SDS011;5728;42.722;23.258;2024-02-26T09:25:48;31.03;;;18.07;;
11346;SDS011;5728;42.722;23.258;2024-02-26T09:28:14;25.10;;;17.63;;
11346;SDS011;5728;42.722;23.258;2024-02-26T09:30:43;24.87;;;17.50;;
11346;SDS011;5728;42.722;23.258;2024-02-26T09:33:10;26.33;;;17.17;;
11346;SDS011;5728;42.722;23.258;2024-02-26T09:35:38;26.70;;;17.00;;
11346;SDS011;5728;42.722;23.258;2024-02-26T09:38:05;26.57;;;16.20;;
11346;SDS011;5728;42.722;23.258;2024-02-26T09:40:32;29.87;;;17.40;;
11346;SDS011;5728;42.722;23.258;2024-02-26T09:42:59;26.20;;;17.10;;
11346;SDS011;5728;42.722;23.258;2024-02-26T09:45:27;27.90;;;18.50;;
11346;SDS011;5728;42.722;23.258;2024-02-26T09:47:57;28.52;;;18.15;;
11346;SDS011;5728;42.722;23.258;2024-02-26T09:50:25;28.40;;;17.85;;
11346;SDS011;5728;42.722;23.258;2024-02-26T09:52:52;21.85;;;12.68;;
11346;SDS011;5728;42.722;23.258;2024-02-26T09:55:22;16.05;;;10.52;;
11346;SDS011;5728;42.722;23.258;2024-02-26T09:57:50;17.50;;;9.60;;
11346;SDS011;5728;42.722;23.258;2024-02-26T10:00:18;15.05;;;7.53;;
11346;SDS011;5728;42.722;23.258;2024-02-26T10:02:48;11.10;;;7.57;;
11346;SDS011;5728;42.722;23.258;2024-02-26T10:05:17;9.23;;;5.97;;
11346;SDS011;5728;42.722;23.258;2024-02-26T10:07:45;12.75;;;6.68;;
11346;SDS011;5728;42.722;23.258;2024-02-26T10:10:13;8.07;;;5.63;;
11346;SDS011;5728;42.722;23.258;2024-02-26T10:12:40;14.83;;;6.43;;
11346;SDS011;5728;42.722;23.258;2024-02-26T10:15:08;9.32;;;5.60;;
11346;SDS011;5728;42.722;23.258;2024-02-26T10:17:35;7.50;;;5.22;;
11346;SDS011;5728;42.722;23.258;2024-02-26T10:20:13;8.88;;;5.65;;
11346;SDS011;5728;42.722;23.258;2024-02-26T10:22:44;9.37;;;5.93;;
11346;SDS011;5728;42.722;23.258;2024-02-26T10:25:11;10.70;;;5.38;;
11346;SDS011;5728;42.722;23.258;2024-02-26T10:27:40;8.35;;;5.13;;
11346;SDS011;5728;42.722;23.258;2024-02-26T10:30:15;8.00;;;5.03;;
11346;SDS011;5728;42.722;23.258;2024-02-26T10:32:44;7.20;;;5.23;;
11346;SDS011;5728;42.722;23.258;2024-02-26T10:35:11;7.43;;;5.30;;
11346;SDS011;5728;42.722;23.258;2024-02-26T10:37:39;6.38;;;4.93;;
11346;SDS011;5728;42.722;23.258;2024-02-26T10:40:10;6.28;;;5.30;;
11346;SDS011;5728;42.722;23.258;2024-02-26T10:42:38;6.45;;;4.85;;
11346;SDS011;5728;42.722;23.258;2024-02-26T10:45:05;5.82;;;5.22;;
11346;SDS011;5728;42.722;23.258;2024-02-26T10:47:34;8.30;;;5.23;;
11346;SDS011;5728;42.722;23.258;2024-02-26T10:50:01;9.45;;;5.32;;
11346;SDS011;5728;42.722;23.258;2024-02-26T10:52:30;7.68;;;5.03;;
11346;SDS011;5728;42.722;23.258;2024-02-26T10:55:00;7.45;;;5.03;;
11346;SDS011;5728;42.722;23.258;2024-02-26T10:57:31;9.18;;;5.00;;
11346;SDS011;5728;42.722;23.258;2024-02-26T11:00:00;5.20;;;4.57;;
11346;SDS011;5728;42.722;23.258;2024-02-26T11:02:30;6.22;;;4.75;;
11346;SDS011;5728;42.722;23.258;2024-02-26T11:04:59;6.43;;;4.95;;
11346;SDS011;5728;42.722;23.258;2024-02-26T11:07:28;11.40;;;4.82;;
11346;SDS011;5728;42.722;23.258;2024-02-26T11:09:56;6.40;;;5.03;;
11346;SDS011;5728;42.722;23.258;2024-02-26T11:12:25;5.97;;;4.63;;
11346;SDS011;5728;42.722;23.258;2024-02-26T11:14:56;6.43;;;5.15;;
11346;SDS011;5728;42.722;23.258;2024-02-26T11:17:26;5.97;;;4.38;;
11346;SDS011;5728;42.722;23.258;2024-02-26T11:19:56;4.97;;;4.30;;
11346;SDS011;5728;42.722;23.258;2024-02-26T11:22:24;12.95;;;5.03;;
11346;SDS011;5728;42.722;23.258;2024-02-26T11:24:52;5.78;;;5.03;;
11346;SDS011;5728;42.722;23.258;2024-02-26T11:27:23;6.85;;;4.22;;
11346;SDS011;5728;42.722;23.258;2024-02-26T11:29:56;6.38;;;4.40;;
11346;SDS011;5728;42.722;23.258;2024-02-26T11:32:26;7.60;;;4.95;;
11346;SDS011;5728;42.722;23.258;2024-02-26T11:34:55;12.30;;;4.88;;
11346;SDS011;5728;42.722;23.258;2024-02-26T11:37:23;6.72;;;4.80;;
11346;SDS011;5728;42.722;23.258;2024-02-26T11:39:51;10.95;;;4.93;;
11346;SDS011;5728;42.722;23.258;2024-02-26T11:42:22;10.63;;;4.60;;
11346;SDS011;5728;42.722;23.258;2024-02-26T11:44:50;5.57;;;4.80;;
11346;SDS011;5728;42.722;23.258;2024-02-26T11:47:19;7.53;;;5.40;;
11346;SDS011;5728;42.722;23.258;2024-02-26T11:49:47;11.13;;;4.55;;
11346;SDS011;5728;42.722;23.258;2024-02-26T11:52:15;8.20;;;4.95;;
11346;SDS011;5728;42.722;23.258;2024-02-26T11:54:46;5.32;;;4.82;;
11346;SDS011;5728;42.722;23.258;2024-02-26T11:57:23;9.48;;;4.63;;
11346;SDS011;5728;42.722;23.258;2024-02-26T11:59:52;6.38;;;4.22;;
11346;SDS011;5728;42.722;23.258;2024-02-26T12:05:15;5.70;;;3.90;;
11346;SDS011;5728;42.722;23.258;2024-02-26T12:07:45;5.43;;;3.85;;
11346;SDS011;5728;42.722;23.258;2024-02-26T12:10:13;11.20;;;4.47;;
11346;SDS011;5728;42.722;23.258;2024-02-26T12:12:42;8.48;;;4.13;;
11346;SDS011;5728;42.722;23.258;2024-02-26T12:15:09;6.38;;;4.40;;
11346;SDS011;5728;42.722;23.258;2024-02-26T12:17:37;6.75;;;4.00;;
11346;SDS011;5728;42.722;23.258;2024-02-26T12:20:10;5.35;;;4.60;;
11346;SDS011;5728;42.722;23.258;2024-02-26T12:22:39;7.40;;;4.78;;
11346;SDS011;5728;42.722;23.258;2024-02-26T12:25:08;9.35;;;4.47;;
11346;SDS011;5728;42.722;23.258;2024-02-26T12:27:36;6.28;;;4.15;;
11346;SDS011;5728;42.722;23.258;2024-02-26T12:30:06;4.72;;;4.22;;
11346;SDS011;5728;42.722;23.258;2024-02-26T12:32:34;9.05;;;4.70;;
11346;SDS011;5728;42.722;23.258;2024-02-26T12:35:02;4.43;;;4.00;;
11346;SDS011;5728;42.722;23.258;2024-02-26T12:37:33;6.38;;;4.28;;
11346;SDS011;5728;42.722;23.258;2024-02-26T12:40:03;7.70;;;3.67;;
11346;SDS011;5728;42.722;23.258;2024-02-26T12:42:33;6.88;;;4.00;;
11346;SDS011;5728;42.722;23.258;2024-02-26T12:45:05;6.18;;;4.05;;
11346;SDS011;5728;42.722;23.258;2024-02-26T12:47:35;4.22;;;3.83;;
11346;SDS011;5728;42.722;23.258;2024-02-26T12:50:04;5.28;;;3.80;;
11346;SDS011;5728;42.722;23.258;2024-02-26T12:52:35;6.28;;;3.78;;
11346;SDS011;5728;42.722;23.258;2024-02-26T12:55:03;6.28;;;3.55;;
11346;SDS011;5728;42.722;23.258;2024-02-26T12:57:34;4.10;;;3.50;;
11346;SDS011;5728;42.722;23.258;2024-02-26T13:00:04;4.38;;;3.50;;
11346;SDS011;5728;42.722;23.258;2024-02-26T13:02:34;4.43;;;3.80;;
11346;SDS011;5728;42.722;23.258;2024-02-26T13:05:03;5.05;;;3.90;;
11346;SDS011;5728;42.722;23.258;2024-02-26T13:07:34;5.18;;;4.05;;
11346;SDS011;5728;42.722;23.258;2024-02-26T13:10:01;9.57;;;4.00;;
11346;SDS011;5728;42.722;23.258;2024-02-26T13:12:28;3.58;;;3.22;;
11346;SDS011;5728;42.722;23.258;2024-02-26T13:14:59;6.18;;;4.18;;
11346;SDS011;5728;42.722;23.258;2024-02-26T13:17:26;5.53;;;3.25;;
11346;SDS011;5728;42.722;23.258;2024-02-26T13:19:54;6.60;;;4.03;;
11346;SDS011;5728;42.722;23.258;2024-02-26T13:22:21;6.20;;;3.83;;
11346;SDS011;5728;42.722;23.258;2024-02-26T13:24:59;5.70;;;4.20;;
11346;SDS011;5728;42.722;23.258;2024-02-26T13:27:28;6.50;;;4.00;;
11346;SDS011;5728;42.722;23.258;2024-02-26T13:30:02;18.55;;;3.72;;
11346;SDS011;5728;42.722;23.258;2024-02-26T13:32:31;10.48;;;4.10;;
11346;SDS011;5728;42.722;23.258;2024-02-26T13:35:06;4.63;;;3.38;;
11346;SDS011;5728;42.722;23.258;2024-02-26T13:37:34;7.28;;;3.78;;
11346;SDS011;5728;42.722;23.258;2024-02-26T13:40:05;6.88;;;4.18;;
11346;SDS011;5728;42.722;23.258;2024-02-26T13:42:34;4.20;;;3.53;;
11346;SDS011;5728;42.722;23.258;2024-02-26T13:45:01;13.40;;;4.13;;
11346;SDS011;5728;42.722;23.258;2024-02-26T13:47:28;5.82;;;3.80;;
11346;SDS011;5728;42.722;23.258;2024-02-26T13:49:55;4.30;;;3.70;;
11346;SDS011;5728;42.722;23.258;2024-02-26T13:52:22;4.15;;;3.17;;
11346;SDS011;5728;42.722;23.258;2024-02-26T13:54:49;4.78;;;3.80;;
11346;SDS011;5728;42.722;23.258;2024-02-26T13:57:21;4.47;;;3.33;;
11346;SDS011;5728;42.722;23.258;2024-02-26T13:59:48;6.60;;;4.07;;
11346;SDS011;5728;42.722;23.258;2024-02-26T14:02:17;7.65;;;4.30;;
11346;SDS011;5728;42.722;23.258;2024-02-26T14:04:44;8.40;;;4.25;;
11346;SDS011;5728;42.722;23.258;2024-02-26T14:07:12;7.80;;;3.83;;
11346;SDS011;5728;42.722;23.258;2024-02-26T14:09:41;12.98;;;4.03;;
11346;SDS011;5728;42.722;23.258;2024-02-26T14:12:08;6.80;;;4.15;;
11346;SDS011;5728;42.722;23.258;2024-02-26T14:14:37;6.13;;;3.65;;
11346;SDS011;5728;42.722;23.258;2024-02-26T14:17:05;6.68;;;3.50;;
11346;SDS011;5728;42.722;23.258;2024-02-26T14:19:33;7.90;;;3.50;;
11346;SDS011;5728;42.722;23.258;2024-02-26T14:22:00;5.30;;;3.88;;
11346;SDS011;5728;42.722;23.258;2024-02-26T14:24:27;4.78;;;3.65;;
11346;SDS011;5728;42.722;23.258;2024-02-26T14:26:55;6.82;;;4.18;;
11346;SDS011;5728;42.722;23.258;2024-02-26T14:29:22;5.35;;;3.55;;
11346;SDS011;5728;42.722;23.258;2024-02-26T14:31:50;9.07;;;4.10;;
11346;SDS011;5728;42.722;23.258;2024-02-26T14:34:17;4.60;;;3.50;;
11346;SDS011;5728;42.722;23.258;2024-02-26T14:36:44;4.47;;;3.28;;